Estación Meteorológica Peña el Pijo (Robertgarden) [ 07/23/19 12:45:28 CEST ]

Fecha Hora Presion(HPa) Temp (°C) Humedad % Rocio (°C) Viento ( m/s) Direccion Lluvia 1Hora(mm) Lluvia 24H(mm) LLuvia Total(mm)
2019-Jan-11 01:01:50 1007.800 -4.4 69 -9.3         161.09
2019-Jan-11 02:03:13 1007.500 -4.9 70 -9.5         161.09
2019-Jan-11 03:01:50 1007.800 -5.4 71 -9.8         161.09
2019-Jan-11 04:01:48 1008.300 -6.1 72 -10.4         161.09
2019-Jan-11 05:01:46 1008.100 -6.1 73 -10.2         161.09
2019-Jan-11 06:01:45 1007.600 -6.2 74 -10.1         161.09
2019-Jan-11 07:01:44 1008.300 -6.7 74 -10.6         161.09
2019-Jan-11 08:01:47 1008.400 -7.1 74 -11.0         161.09
2019-Jan-11 09:01:42 1009.200 -6.9 76 -10.5         161.09
2019-Jan-11 10:01:43 1010.000 -2.2 76 -5.9         161.09
2019-Jan-11 11:01:40 1010.500 3.3 57 -4.4         161.09
2019-Jan-11 12:01:37 1010.500 5.6 42 -6.4         161.09
2019-Jan-11 13:01:29 1010.000 6.8 37 -7.0         161.09
2019-Jan-11 14:01:46 1009.800 8.7 29 -8.4         161.09
2019-Jan-11 15:01:45 1009.800 9.3 23 -11.0         161.09
2019-Jan-11 16:01:24 1010.000 8.9 21 -12.4         161.09
2019-Jan-11 17:01:21 1010.400 6.6 22 -13.7         161.09
2019-Jan-11 18:01:14 1010.900 4.3 27 -13.2         161.09
2019-Jan-11 19:01:58 1011.600 1.3 32 -13.7         161.09
2019-Jan-11 20:01:24 1012.300 -1.5 40 -13.3         161.09
2019-Jan-11 21:01:32 1012.600 -3.0 45 -13.3         161.09
2019-Jan-11 22:01:50 1013.000 -3.2 47 -13.0         161.09
2019-Jan-11 23:01:40 1013.200 -3.4 50 -12.4         161.09

Temperatura Máxima:    Temperatura Mínima:-7°
Presión Máxima:1013.200 Hpa    Presión Mínima:1007.500 Hpa


Volver